Time;durP1;ratioP1;P1;durP2;ratioP2;P2;SDS_P1;SDS_P2;PMS_P1;PMS_P2;Temp;Humidity;BMP_temperature;BMP_pressure;BME280_temperature;BME280_humidity;BME280_pressure;Samples;Min_cycle;Max_cycle;Signal;HPM_P1;HPM_P2
2022/03/27 00:01:53;;;;;;;;;8.20;6.20;;;;;10.28;51.98;101350.78;5096112;28;8920;-64
2022/03/27 00:04:21;;;;;;;;;7.40;6.80;;;;;10.34;52.27;101354.91;5112401;28;8845;-64
2022/03/27 00:06:49;;;;;;;;;10.80;10.00;;;;;10.38;52.17;101349.31;5116186;28;8825;-63
2022/03/27 00:09:17;;;;;;;;;14.80;12.60;;;;;10.42;51.94;101355.34;5116865;28;8826;-62
2022/03/27 00:11:45;;;;;;;;;14.20;12.60;;;;;10.44;51.69;101345.44;5116726;28;8851;-64
2022/03/27 00:14:12;;;;;;;;;12.80;12.40;;;;;10.44;51.75;101346.31;5116882;28;8834;-63
2022/03/27 00:16:40;;;;;;;;;8.40;7.20;;;;;10.42;51.89;101353.53;5116297;28;8836;-64
2022/03/27 00:19:08;;;;;;;;;12.80;11.60;;;;;10.37;52.16;101352.94;5116603;28;8841;-63
2022/03/27 00:21:35;;;;;;;;;11.20;10.00;;;;;10.35;52.58;101351.28;5116762;28;8972;-64
2022/03/27 00:24:03;;;;;;;;;10.00;9.60;;;;;10.33;52.41;101353.19;5114114;28;9487;-63
2022/03/27 00:26:31;;;;;;;;;13.80;11.20;;;;;10.34;52.29;101354.91;5113158;28;8825;-62
2022/03/27 00:28:58;;;;;;;;;9.00;9.00;;;;;10.35;52.42;101353.97;5113832;28;8849;-63
2022/03/27 00:31:27;;;;;;;;;3.25;2.75;;;;;10.35;52.41;101352.16;5114486;28;8848;-62
2022/03/27 00:33:55;;;;;;;;;8.20;8.20;;;;;10.35;51.98;101345.97;5112433;28;8805;-63
2022/03/27 00:36:22;;;;;;;;;10.40;10.40;;;;;10.35;52.18;101353.97;5115022;28;8837;-61
2022/03/27 00:38:50;;;;;;;;;12.20;11.20;;;;;10.31;52.55;101355.94;5114906;28;8967;-60
2022/03/27 00:41:19;;;;;;;;;9.60;9.00;;;;;10.25;52.55;101347.44;5115067;28;8851;-61
2022/03/27 00:43:47;;;;;;;;;12.00;9.40;;;;;10.18;52.60;101343.41;5115546;28;8902;-62
2022/03/27 00:46:14;;;;;;;;;9.20;6.00;;;;;10.11;52.91;101345.53;5115794;28;8829;-64
2022/03/27 00:48:42;;;;;;;;;11.60;10.60;;;;;10.03;53.18;101347.75;5116782;28;8834;-61
2022/03/27 00:51:10;;;;;;;;;9.20;8.80;;;;;9.96;53.67;101354.31;5115821;28;8825;-62
2022/03/27 00:53:38;;;;;;;;;10.80;8.80;;;;;9.89;53.49;101346.78;5116591;28;8863;-62
2022/03/27 00:56:06;;;;;;;;;8.60;7.80;;;;;9.83;53.68;101349.75;5115939;28;8853;-62
2022/03/27 00:58:33;;;;;;;;;10.00;7.80;;;;;9.78;53.84;101354.47;5116532;28;9748;-63
2022/03/27 01:01:01;;;;;;;;;5.00;4.80;;;;;9.72;53.88;101342.34;5116385;28;8986;-64
2022/03/27 01:03:31;;;;;;;;;6.80;6.20;;;;;9.68;53.93;101351.44;5114155;28;8802;-63
2022/03/27 01:05:58;;;;;;;;;6.60;6.00;;;;;9.63;54.09;101342.00;5115047;28;8846;-64
2022/03/27 01:11:11;;;;;;;;;8.60;7.00;;;;;9.57;54.33;101337.00;5115739;28;8845;-68
2022/03/27 01:13:39;;;;;;;;;12.60;10.00;;;;;9.51;54.10;101343.53;5115645;28;8853;-63
2022/03/27 01:16:07;;;;;;;;;12.40;10.80;;;;;9.46;54.37;101340.22;5116041;28;9487;-62
2022/03/27 01:18:35;;;;;;;;;7.80;7.80;;;;;9.44;54.74;101335.94;5117486;28;8840;-63
2022/03/27 01:21:03;;;;;;;;;11.00;9.60;;;;;9.40;54.43;101337.88;5119900;28;9605;-63
2022/03/27 01:23:30;;;;;;;;;8.60;8.60;;;;;9.37;54.59;101338.06;5120358;28;8848;-63
2022/03/27 01:25:58;;;;;;;;;12.00;9.60;;;;;9.34;54.51;101330.22;5120241;28;8869;-63
2022/03/27 01:28:26;;;;;;;;;8.20;7.60;;;;;9.31;54.54;101333.06;5120255;28;8837;-63
2022/03/27 01:30:54;;;;;;;;;7.60;6.80;;;;;9.29;55.26;101326.97;5119990;28;8851;-63
2022/03/27 01:33:22;;;;;;;;;12.20;12.20;;;;;9.26;54.59;101329.78;5117413;28;8825;-63
2022/03/27 01:35:49;;;;;;;;;9.00;8.20;;;;;9.24;54.98;101326.34;5119720;28;8840;-63
2022/03/27 01:38:17;;;;;;;;;7.80;7.00;;;;;9.22;54.91;101324.69;5119665;28;8925;-62
2022/03/27 01:40:44;;;;;;;;;8.20;7.80;;;;;9.18;55.10;101329.31;5119366;28;9009;-63
2022/03/27 01:43:14;;;;;;;;;10.00;9.00;;;;;9.16;55.09;101325.88;5119513;28;8960;-63
2022/03/27 01:45:41;;;;;;;;;6.60;6.60;;;;;9.15;55.56;101332.13;5119231;28;8855;-63
2022/03/27 01:48:09;;;;;;;;;10.00;9.80;;;;;9.13;55.36;101326.03;5119959;28;8829;-63
2022/03/27 01:50:37;;;;;;;;;9.40;9.40;;;;;9.11;55.68;101325.25;5119959;28;8825;-63
2022/03/27 01:53:05;;;;;;;;;6.00;4.20;;;;;9.09;55.43;101326.25;5119751;28;8829;-63
2022/03/27 01:55:32;;;;;;;;;8.40;7.80;;;;;9.05;55.24;101316.75;5119877;28;8853;-63
2022/03/27 01:58:00;;;;;;;;;10.80;9.40;;;;;9.04;55.47;101320.34;5119443;28;8849;-63
2022/03/27 02:00:28;;;;;;;;;9.60;7.80;;;;;9.01;55.48;101318.69;5119622;28;8856;-64
2022/03/27 02:02:56;;;;;;;;;12.60;9.60;;;;;9.00;55.81;101322.31;5103767;28;8800;-63
2022/03/27 02:05:24;;;;;;;;;7.80;7.00;;;;;8.96;55.41;101318.06;5098782;28;8831;-62
2022/03/27 02:07:52;;;;;;;;;11.60;10.20;;;;;8.96;55.58;101318.06;5099263;28;8828;-63
2022/03/27 02:10:19;;;;;;;;;6.20;6.00;;;;;8.94;55.73;101319.94;5099301;28;8832;-67
2022/03/27 02:12:47;;;;;;;;;8.60;8.20;;;;;8.92;55.63;101311.22;5099035;28;8948;-63
2022/03/27 02:15:15;;;;;;;;;6.20;6.00;;;;;8.89;55.92;101319.31;5098729;28;8830;-64
2022/03/27 02:17:43;;;;;;;;;10.60;9.40;;;;;8.87;56.03;101318.53;5098215;28;8966;-62
2022/03/27 02:20:10;;;;;;;;;10.40;10.00;;;;;8.85;55.99;101319.53;5100362;28;8830;-63
2022/03/27 02:22:38;;;;;;;;;7.40;7.00;;;;;8.83;56.28;101327.59;5098389;28;8827;-63
2022/03/27 02:25:06;;;;;;;;;4.00;4.00;;;;;8.79;56.14;101312.75;5098877;28;8990;-63
2022/03/27 02:27:34;;;;;;;;;7.00;6.80;;;;;8.78;56.23;101326.09;5098711;28;8845;-63
2022/03/27 02:30:01;;;;;;;;;9.20;9.20;;;;;8.74;56.12;101320.09;5098138;28;8827;-63
2022/03/27 02:32:29;;;;;;;;;11.40;10.60;;;;;8.73;56.29;101321.03;5111704;28;8837;-64
2022/03/27 02:34:57;;;;;;;;;6.00;4.40;;;;;8.69;56.49;101315.94;5118338;28;8810;-63
2022/03/27 02:37:25;;;;;;;;;7.80;7.80;;;;;8.66;56.68;101322.25;5119021;28;8837;-64
2022/03/27 02:39:52;;;;;;;;;8.60;8.60;;;;;8.60;56.47;101317.25;5118619;28;9549;-63
2022/03/27 02:42:20;;;;;;;;;7.60;6.40;;;;;8.57;57.21;101316.53;5118817;28;8837;-63
2022/03/27 02:44:48;;;;;;;;;7.00;7.00;;;;;8.53;56.86;101321.16;5118755;28;8864;-63
2022/03/27 02:47:16;;;;;;;;;7.00;7.00;;;;;8.48;57.06;101317.88;5118548;28;8856;-63
2022/03/27 02:49:44;;;;;;;;;9.40;8.60;;;;;8.44;56.94;101321.59;5118548;28;8825;-63
2022/03/27 02:52:11;;;;;;;;;5.60;5.60;;;;;8.42;56.89;101318.16;5118502;28;8848;-62
2022/03/27 02:54:39;;;;;;;;;9.80;7.00;;;;;8.42;57.17;101325.25;5118807;28;8873;-63
2022/03/27 02:57:07;;;;;;;;;8.60;8.20;;;;;8.45;56.99;101320.66;5118412;28;8840;-63
2022/03/27 02:59:34;;;;;;;;;10.40;9.20;;;;;8.52;56.79;101318.59;5117974;28;8829;-63
2022/03/27 03:02:04;;;;;;;;;12.20;10.80;;;;;8.58;56.86;101329.75;5108269;28;8824;-63
2022/03/27 03:04:34;;;;;;;;;5.00;4.50;;;;;8.64;56.35;101321.50;5097665;28;8955;-63
2022/03/27 03:07:02;;;;;;;;;9.80;9.80;;;;;8.74;56.16;101327.22;5097910;28;8827;-64
2022/03/27 03:09:30;;;;;;;;;8.20;7.40;;;;;8.82;56.29;101322.38;5098013;28;8831;-63
2022/03/27 03:11:58;;;;;;;;;10.00;9.40;;;;;8.91;56.13;101325.44;5097740;28;8844;-63
2022/03/27 03:14:25;;;;;;;;;10.40;9.00;;;;;9.00;55.95;101322.31;5096608;28;9473;-63
2022/03/27 03:16:53;;;;;;;;;9.00;7.00;;;;;9.09;55.91;101326.25;5096864;28;8901;-63
2022/03/27 03:19:21;;;;;;;;;10.00;9.60;;;;;9.16;55.25;101328.53;5096014;28;8842;-63
2022/03/27 03:21:49;;;;;;;;;10.40;9.20;;;;;9.24;56.11;101321.03;5095330;28;8860;-63
2022/03/27 03:24:17;;;;;;;;;9.40;9.20;;;;;9.30;55.45;101322.50;5096611;28;9505;-63
2022/03/27 03:26:45;;;;;;;;;8.40;6.80;;;;;9.35;55.97;101323.13;5096448;28;8978;-63
2022/03/27 03:29:13;;;;;;;;;9.20;9.00;;;;;9.36;55.65;101319.53;5097698;28;8857;-63
2022/03/27 03:31:41;;;;;;;;;9.00;9.00;;;;;9.36;55.79;101325.72;5104081;28;8806;-63
2022/03/27 03:34:09;;;;;;;;;4.00;3.40;;;;;9.36;55.48;101323.06;5117675;28;8846;-62
2022/03/27 03:36:37;;;;;;;;;10.00;8.40;;;;;9.38;55.57;101326.47;5117534;28;8832;-63
2022/03/27 03:39:04;;;;;;;;;9.40;8.20;;;;;9.40;55.49;101327.25;5117892;28;8841;-62
2022/03/27 03:41:32;;;;;;;;;9.80;7.40;;;;;9.42;55.63;101320.03;5116328;28;8837;-62
2022/03/27 03:44:20;;;;;;;;;9.80;9.00;;;;;9.47;55.56;101318.00;5117222;28;8840;-62
2022/03/27 03:46:48;;;;;;;;;9.20;9.00;;;;;9.50;55.66;101324.97;5117858;28;8848;-63
2022/03/27 03:49:20;;;;;;;;;3.60;3.60;;;;;9.52;55.51;101317.78;5117379;28;8830;-61
2022/03/27 03:51:48;;;;;;;;;10.40;10.00;;;;;9.55;55.40;101321.13;5117409;28;9475;-63
2022/03/27 03:54:15;;;;;;;;;8.20;7.80;;;;;9.58;55.59;101326.25;5117039;28;8853;-62
2022/03/27 03:56:43;;;;;;;;;10.80;9.00;;;;;9.62;55.57;101330.50;5117214;28;8825;-62
2022/03/27 03:59:11;;;;;;;;;9.60;9.60;;;;;9.66;55.26;101323.22;5115456;28;8830;-62
2022/03/27 04:01:57;;;;;;;;;12.80;10.80;;;;;9.71;55.51;101322.00;5092345;28;8832;-62
2022/03/27 04:04:25;;;;;;;;;8.00;7.40;;;;;9.75;55.79;101323.59;5096307;28;8804;-62
2022/03/27 04:06:53;;;;;;;;;15.40;13.80;;;;;9.80;55.78;101318.00;5095886;28;8850;-62
2022/03/27 04:09:21;;;;;;;;;7.60;6.20;;;;;9.82;55.93;101314.34;5096617;28;8828;-62
2022/03/27 04:11:48;;;;;;;;;12.40;11.20;;;;;9.87;55.69;101314.06;5096684;28;8828;-62
2022/03/27 04:14:16;;;;;;;;;11.60;11.20;;;;;9.91;55.50;101313.81;5095988;28;8839;-62
2022/03/27 04:16:44;;;;;;;;;7.80;7.00;;;;;9.95;55.94;101315.34;5096396;28;9516;-63
2022/03/27 04:19:13;;;;;;;;;10.40;9.60;;;;;9.99;55.90;101308.94;5096436;28;9516;-62
2022/03/27 04:21:41;;;;;;;;;10.80;10.80;;;;;10.01;55.86;101315.00;5095926;28;8858;-62
2022/03/27 04:24:09;;;;;;;;;13.60;10.20;;;;;10.04;55.93;101316.69;5095765;28;8886;-63
2022/03/27 04:26:39;;;;;;;;;10.00;9.00;;;;;10.06;56.08;101306.81;5096044;28;8820;-63
2022/03/27 04:29:06;;;;;;;;;11.20;10.00;;;;;10.08;56.16;101304.94;5096003;28;8918;-62
2022/03/27 04:31:34;;;;;;;;;12.75;12.50;;;;;10.09;56.18;101304.84;5103324;28;8810;-63
2022/03/27 04:34:02;;;;;;;;;12.80;11.60;;;;;10.11;55.88;101302.09;5115611;28;8875;-63
2022/03/27 04:36:30;;;;;;;;;15.00;12.40;;;;;10.11;56.46;101308.25;5115494;28;8927;-62
2022/03/27 04:38:58;;;;;;;;;12.75;12.00;;;;;10.10;56.10;101301.22;5115459;28;8855;-62
2022/03/27 04:41:26;;;;;;;;;11.60;11.60;;;;;10.10;56.59;101301.22;5115605;28;8853;-63
2022/03/27 04:43:54;;;;;;;;;15.60;13.00;;;;;10.10;56.38;101306.56;5115710;28;8887;-63
2022/03/27 04:46:21;;;;;;;;;14.60;13.00;;;;;10.10;56.01;101308.38;5115515;28;8841;-62
2022/03/27 04:48:49;;;;;;;;;10.00;10.00;;;;;10.12;56.42;101315.34;5115729;28;8840;-63
2022/03/27 04:51:17;;;;;;;;;9.80;9.40;;;;;10.14;56.54;101316.09;5116264;28;8805;-63
2022/03/27 04:53:45;;;;;;;;;13.40;12.60;;;;;10.14;56.56;101313.44;5115869;28;8837;-64
2022/03/27 04:56:12;;;;;;;;;10.40;9.20;;;;;10.13;56.72;101311.72;5114713;28;8983;-62
2022/03/27 04:58:40;;;;;;;;;12.40;12.40;;;;;10.13;56.69;101317.03;5114201;28;8825;-63
2022/03/27 05:01:08;;;;;;;;;12.80;11.60;;;;;10.12;56.54;101315.34;5109891;28;8838;-63
2022/03/27 05:03:36;;;;;;;;;12.80;10.80;;;;;10.14;56.77;101313.44;5082027;28;8921;-62
2022/03/27 05:06:04;;;;;;;;;10.40;9.00;;;;;10.12;57.14;101322.44;5094175;28;8982;-63
2022/03/27 05:08:33;;;;;;;;;11.20;9.40;;;;;10.10;57.05;101327.84;5093919;28;8840;-64
2022/03/27 05:11:00;;;;;;;;;17.20;16.40;;;;;10.09;56.99;101323.47;5094977;28;8964;-63
2022/03/27 05:13:28;;;;;;;;;6.00;4.80;;;;;10.08;56.93;101327.06;5095429;28;8816;-65
2022/03/27 05:15:56;;;;;;;;;20.20;16.40;;;;;10.09;57.15;101335.94;5094711;28;8836;-63
2022/03/27 05:18:23;;;;;;;;;13.00;12.20;;;;;10.10;57.06;101329.66;5094281;28;8831;-64
2022/03/27 05:20:51;;;;;;;;;22.40;18.20;;;;;10.11;57.22;101332.22;5094453;28;8853;-63
2022/03/27 05:23:19;;;;;;;;;12.80;12.40;;;;;10.13;57.37;101334.81;5094753;28;8845;-63
2022/03/27 05:25:49;;;;;;;;;15.00;13.80;;;;;10.15;57.31;101332.91;5094882;28;9498;-63
2022/03/27 05:28:16;;;;;;;;;13.40;13.40;;;;;10.16;57.28;101332.84;5094545;28;8845;-62
2022/03/27 05:30:44;;;;;;;;;16.20;13.60;;;;;10.20;57.50;101342.38;5098130;28;8826;-62
2022/03/27 05:33:12;;;;;;;;;15.80;13.80;;;;;10.22;57.72;101345.81;5115671;28;8859;-63
2022/03/27 05:35:40;;;;;;;;;15.20;15.00;;;;;10.23;58.21;101342.19;5115098;28;8858;-63
2022/03/27 05:38:08;;;;;;;;;15.00;14.20;;;;;10.24;57.87;101337.75;5116006;28;8833;-62
2022/03/27 05:40:35;;;;;;;;;15.40;15.40;;;;;10.24;58.09;101341.25;5116230;28;8958;-62
2022/03/27 05:43:03;;;;;;;;;13.80;12.00;;;;;10.24;58.11;101343.91;5115890;28;8967;-66
2022/03/27 05:45:31;;;;;;;;;18.60;14.20;;;;;10.23;58.40;101333.38;5115869;28;8925;-62
2022/03/27 05:47:59;;;;;;;;;15.40;13.40;;;;;10.22;58.40;101335.16;5115740;28;8825;-62
2022/03/27 05:50:27;;;;;;;;;18.80;15.40;;;;;10.24;58.48;101337.75;5113113;28;8829;-63
2022/03/27 05:52:55;;;;;;;;;19.00;16.40;;;;;10.24;58.39;101335.09;5114168;28;8820;-62
2022/03/27 05:55:22;;;;;;;;;21.60;18.40;;;;;10.24;58.35;101343.06;5114570;28;8861;-62
2022/03/27 05:57:50;;;;;;;;;18.00;16.00;;;;;10.21;58.83;101346.75;5114047;28;9498;-63
2022/03/27 06:00:19;;;;;;;;;16.40;15.00;;;;;10.20;58.23;101353.03;5114570;28;8825;-63
2022/03/27 06:02:47;;;;;;;;;12.40;12.00;;;;;10.20;58.89;101346.81;5114765;28;8837;-63
2022/03/27 06:05:17;;;;;;;;;12.40;12.00;;;;;10.19;58.66;101343.31;5116851;28;8818;-62
2022/03/27 06:07:45;;;;;;;;;20.00;16.00;;;;;10.22;58.87;101342.28;5118836;28;8871;-63
2022/03/27 06:10:13;;;;;;;;;17.20;13.40;;;;;10.24;58.96;101353.72;5119173;28;9483;-62
2022/03/27 06:12:40;;;;;;;;;7.40;6.60;;;;;10.27;58.93;101353.53;5119481;28;8973;-62
2022/03/27 06:15:08;;;;;;;;;19.80;16.40;;;;;10.27;58.68;101362.38;5117992;28;8852;-62
2022/03/27 06:17:36;;;;;;;;;16.80;12.40;;;;;10.31;58.71;101361.25;5117978;28;8821;-63
2022/03/27 06:20:04;;;;;;;;;25.40;17.80;;;;;10.34;58.94;101362.91;5106720;28;8831;-62
2022/03/27 06:22:31;;;;;;;;;18.00;16.40;;;;;10.36;58.75;101369.88;5097125;28;8942;-63
2022/03/27 06:24:59;;;;;;;;;18.80;17.60;;;;;10.37;58.57;101370.69;5097643;28;8867;-62
2022/03/27 06:27:27;;;;;;;;;18.60;16.40;;;;;10.36;58.65;101369.88;5097662;28;9506;-63
2022/03/27 06:29:54;;;;;;;;;17.50;13.00;;;;;10.35;59.13;101370.81;5097219;28;8824;-63
2022/03/27 06:32:26;;;;;;;;;10.40;9.60;;;;;10.35;58.96;101373.47;5097381;28;8920;-63
2022/03/27 06:34:54;;;;;;;;;21.20;17.40;;;;;10.38;58.79;101367.97;5103409;28;8865;-62
2022/03/27 06:37:21;;;;;;;;;16.80;13.40;;;;;10.38;58.32;101370.63;5118754;28;8826;-62
2022/03/27 06:39:49;;;;;;;;;16.20;15.00;;;;;10.39;58.99;101380.31;5118985;28;8839;-62
2022/03/27 06:42:17;;;;;;;;;17.20;15.60;;;;;10.41;59.04;101381.09;5118916;28;8939;-62
2022/03/27 06:44:45;;;;;;;;;16.80;12.80;;;;;10.44;58.93;101378.28;5118274;28;8855;-62
2022/03/27 06:47:13;;;;;;;;;14.00;11.50;;;;;10.47;59.06;101370.09;5118753;28;8837;-62
2022/03/27 06:49:41;;;;;;;;;14.50;14.00;;;;;10.50;58.90;101371.75;5110244;28;8815;-63
2022/03/27 06:52:09;;;;;;;;;12.75;12.00;;;;;10.51;59.05;101377.00;5097916;28;8835;-62
2022/03/27 06:54:39;;;;;;;;;15.75;12.50;;;;;10.52;58.81;101372.50;5097649;28;8855;-67
2022/03/27 06:57:07;;;;;;;;;15.60;13.20;;;;;10.55;58.68;101380.34;5098190;28;8827;-62
2022/03/27 07:05:02;;;;;;;;;15.75;14.00;;;;;10.57;59.02;101371.31;5096220;28;8828;-63
2022/03/27 07:07:31;;;;;;;;;14.00;12.25;;;;;10.61;58.77;101374.66;5097522;28;8843;-63
2022/03/27 07:09:58;;;;;;;;;11.00;7.00;;;;;10.62;58.65;101377.22;5097729;28;8844;-63
2022/03/27 07:12:26;;;;;;;;;17.00;15.40;;;;;10.65;58.60;101382.41;5097795;28;9517;-62
2022/03/27 07:14:54;;;;;;;;;15.00;13.00;;;;;10.68;59.03;101381.34;5097093;28;8847;-63
2022/03/27 07:17:42;;;;;;;;;12.25;12.25;;;;;10.72;58.65;101378.44;5097380;28;8835;-63
2022/03/27 07:20:09;;;;;;;;;12.25;12.00;;;;;10.78;59.04;101375.41;5108605;28;8814;-63
2022/03/27 07:22:37;;;;;;;;;13.50;13.50;;;;;10.84;58.47;101377.72;5117760;28;8926;-64
2022/03/27 07:25:07;;;;;;;;;11.60;8.60;;;;;10.90;58.66;101379.16;5117757;28;8846;-62
2022/03/27 07:27:34;;;;;;;;;12.75;10.00;;;;;10.94;58.19;101380.72;5117824;28;8829;-62
2022/03/27 07:30:02;;;;;;;;;13.50;10.50;;;;;10.95;58.37;101379.75;5118160;28;8856;-62
2022/03/27 07:32:30;;;;;;;;;15.25;12.75;;;;;10.97;58.47;101373.41;5117413;28;8825;-62
2022/03/27 07:34:58;;;;;;;;;14.00;12.00;;;;;11.01;58.21;101380.25;5117433;28;8860;-63
2022/03/27 07:37:26;;;;;;;;;15.75;12.75;;;;;11.09;58.09;101372.66;5117721;28;8855;-62
2022/03/27 07:39:54;;;;;;;;;12.50;7.75;;;;;11.16;58.01;101376.69;5117868;28;8903;-63
2022/03/27 07:42:22;;;;;;;;;11.75;11.25;;;;;11.20;57.49;101375.56;5117864;28;8980;-63
2022/03/27 07:44:50;;;;;;;;;14.25;13.50;;;;;11.27;58.01;101366.25;5117106;28;8845;-63
2022/03/27 07:47:17;;;;;;;;;15.50;13.50;;;;;11.34;57.71;101366.75;5117014;28;9533;-63
2022/03/27 07:49:45;;;;;;;;;13.00;10.50;;;;;11.40;57.33;101371.72;5107961;28;8814;-62
2022/03/27 07:52:13;;;;;;;;;16.25;15.75;;;;;11.44;57.62;101366.09;5096689;28;8918;-62
2022/03/27 07:54:41;;;;;;;;;15.00;11.50;;;;;11.52;57.35;101370.97;5096902;28;8855;-63
2022/03/27 07:57:09;;;;;;;;;15.50;14.00;;;;;11.59;57.16;101367.88;5096051;28;8950;-63
2022/03/27 07:59:37;;;;;;;;;12.50;9.50;;;;;11.65;57.19;101367.50;5096233;28;8815;-62
2022/03/27 08:02:04;;;;;;;;;14.00;13.00;;;;;11.73;57.13;101364.34;5096779;28;8839;-64
2022/03/27 08:04:34;;;;;;;;;18.00;14.00;;;;;11.78;56.77;101364.94;5096850;28;8850;-62
2022/03/27 08:07:02;;;;;;;;;15.50;14.50;;;;;11.85;57.10;101372.47;5096604;28;8824;-62
2022/03/27 08:09:30;;;;;;;;;16.50;14.00;;;;;11.89;56.85;101373.97;5095873;28;8835;-62
2022/03/27 08:11:57;;;;;;;;;8.50;7.50;;;;;11.93;56.41;101379.03;5096572;28;8988;-63
2022/03/27 08:14:28;;;;;;;;;19.50;14.50;;;;;11.98;57.08;101377.91;5096526;28;8827;-63
2022/03/27 08:16:55;;;;;;;;;18.75;18.25;;;;;12.03;56.31;101372.19;5096237;28;8845;-62
2022/03/27 08:19:24;;;;;;;;;14.25;13.25;;;;;12.12;56.39;101368.94;5103993;28;8950;-63
2022/03/27 08:21:51;;;;;;;;;11.00;9.00;;;;;12.18;56.50;101365.00;5116723;28;8825;-63
2022/03/27 08:24:19;;;;;;;;;19.50;15.25;;;;;12.22;56.25;101367.38;5116224;28;8850;-63
2022/03/27 08:27:00;;;;;;;;;14.50;13.75;;;;;12.28;56.20;101371.47;5115824;28;8822;-63
2022/03/27 08:29:29;;;;;;;;;12.25;12.25;;;;;12.31;56.35;101366.78;5116739;28;9089;-63
2022/03/27 08:31:59;;;;;;;;;10.00;8.50;;;;;12.33;56.13;101372.91;5116450;28;8843;-63
2022/03/27 08:34:26;;;;;;;;;14.00;12.75;;;;;12.35;56.31;101379.00;5115364;28;8822;-62
2022/03/27 08:36:54;;;;;;;;;15.25;15.00;;;;;12.36;56.68;101377.19;5116148;28;8857;-62
2022/03/27 08:39:22;;;;;;;;;9.25;6.50;;;;;12.41;56.51;101380.44;5116630;28;8843;-62
2022/03/27 08:41:49;;;;;;;;;18.25;15.50;;;;;12.45;56.41;101374.78;5115212;28;8837;-63
2022/03/27 08:44:18;;;;;;;;;13.50;10.00;;;;;12.55;56.05;101378.56;5115265;28;8821;-62
2022/03/27 08:46:46;;;;;;;;;13.25;12.50;;;;;12.63;55.97;101375.41;5116495;28;8829;-62
2022/03/27 08:49:14;;;;;;;;;15.50;14.50;;;;;12.71;55.87;101370.41;5109890;28;8936;-62
2022/03/27 08:51:46;;;;;;;;;16.00;14.00;;;;;12.82;55.40;101365.22;5095666;28;8849;-62
2022/03/27 08:54:14;;;;;;;;;15.00;12.50;;;;;12.92;55.93;101372.53;5095440;28;8862;-63
2022/03/27 08:56:41;;;;;;;;;14.00;11.50;;;;;13.01;55.40;101371.97;5095542;28;8815;-62
2022/03/27 08:59:09;;;;;;;;;10.25;8.00;;;;;13.10;55.27;101370.47;5096112;28;8824;-62
2022/03/27 09:01:39;;;;;;;;;23.25;19.00;;;;;13.20;55.04;101371.59;5095914;28;8841;-63
2022/03/27 09:04:07;;;;;;;;;23.00;20.00;;;;;13.30;55.36;101372.66;5095350;28;8843;-62
2022/03/27 09:06:35;;;;;;;;;15.00;15.00;;;;;13.37;54.93;101373.97;5095695;28;8850;-62
2022/03/27 09:09:03;;;;;;;;;19.50;15.25;;;;;13.43;55.04;101373.56;5095224;28;8845;-62
2022/03/27 09:11:31;;;;;;;;;12.25;10.50;;;;;13.49;55.16;101365.09;5095458;28;8832;-62
2022/03/27 09:13:59;;;;;;;;;9.50;9.50;;;;;13.50;54.61;101369.47;5095614;28;9477;-62
2022/03/27 09:16:26;;;;;;;;;12.75;10.00;;;;;13.55;54.77;101372.69;5095129;28;8850;-63
2022/03/27 09:18:55;;;;;;;;;14.00;12.25;;;;;13.57;54.85;101376.13;5097040;28;8847;-63
2022/03/27 09:21:23;;;;;;;;;15.50;13.50;;;;;13.62;55.02;101374.00;5115173;28;8818;-61
2022/03/27 09:23:51;;;;;;;;;25.75;19.25;;;;;13.64;55.52;101377.41;5115432;28;8841;-61
2022/03/27 09:26:18;;;;;;;;;16.00;13.25;;;;;13.65;55.12;101374.63;5115231;28;8841;-62
2022/03/27 09:28:46;;;;;;;;;22.00;19.50;;;;;13.67;55.06;101375.38;5114520;28;8841;-63
2022/03/27 09:31:14;;;;;;;;;35.50;31.50;;;;;13.70;55.36;101372.50;5115317;28;8829;-62
2022/03/27 09:33:47;;;;;;;;;11.50;9.00;;;;;13.70;55.36;101377.84;5115647;28;8951;-61
2022/03/27 09:36:15;;;;;;;;;19.50;16.50;;;;;13.70;55.42;101377.00;5115689;28;8840;-62
2022/03/27 09:38:42;;;;;;;;;16.25;15.25;;;;;13.72;54.84;101373.25;5116122;28;8825;-62
2022/03/27 09:41:10;;;;;;;;;15.25;14.50;;;;;13.73;55.62;101374.13;5119681;28;8983;-66
2022/03/27 09:43:38;;;;;;;;;20.25;17.75;;;;;13.75;55.40;101377.53;5119199;28;8859;-62
2022/03/27 09:46:06;;;;;;;;;39.00;36.00;;;;;13.75;55.04;101374.84;5119738;28;8873;-63
2022/03/27 09:48:33;;;;;;;;;30.50;25.00;;;;;13.73;55.63;101372.28;5119350;28;8852;-61
2022/03/27 09:51:02;;;;;;;;;27.75;26.50;;;;;13.74;55.53;101370.47;5119215;28;8823;-64
2022/03/27 09:53:29;;;;;;;;;13.50;11.50;;;;;13.73;56.08;101366.91;5119480;28;8952;-62
2022/03/27 09:55:57;;;;;;;;;28.75;27.50;;;;;13.75;55.82;101365.00;5119715;28;8838;-62
2022/03/27 09:58:25;;;;;;;;;22.00;21.00;;;;;13.78;55.98;101370.16;5119377;28;8822;-62
2022/03/27 10:00:52;;;;;;;;;19.00;18.75;;;;;13.82;56.29;101366.28;5118877;28;8809;-62
2022/03/27 10:03:37;;;;;;;;;26.50;21.50;;;;;13.84;56.26;101371.53;5119364;28;8821;-63
2022/03/27 10:06:05;;;;;;;;;18.00;16.00;;;;;13.82;56.27;101366.28;5119009;28;8865;-62
2022/03/27 10:08:33;;;;;;;;;18.50;16.50;;;;;13.83;56.41;101361.78;5119211;28;9518;-61
2022/03/27 10:11:00;;;;;;;;;19.00;16.00;;;;;13.85;56.23;101357.16;5119138;28;8809;-62
2022/03/27 10:13:28;;;;;;;;;18.50;16.50;;;;;13.89;55.96;101364.03;5119303;28;8837;-62
2022/03/27 10:15:57;;;;;;;;;22.75;21.25;;;;;13.90;56.44;101355.03;5119209;28;8842;-62
2022/03/27 10:18:25;;;;;;;;;25.25;22.25;;;;;13.90;56.32;101357.72;5117972;28;8845;-62
2022/03/27 10:20:53;;;;;;;;;33.25;30.75;;;;;13.90;56.58;101355.88;5115743;28;9753;-63
2022/03/27 10:23:20;;;;;;;;;19.75;19.50;;;;;13.93;56.36;101350.31;5100529;28;8828;-62
2022/03/27 10:25:48;;;;;;;;;25.50;22.25;;;;;13.92;56.68;101342.38;5096895;28;8851;-63
2022/03/27 10:28:16;;;;;;;;;26.50;24.00;;;;;13.90;56.65;101347.84;5098261;28;8843;-62
2022/03/27 10:30:43;;;;;;;;;15.25;13.25;;;;;13.90;56.75;101358.56;5094666;28;8835;-62
2022/03/27 10:33:11;;;;;;;;;20.50;20.00;;;;;13.90;56.92;101355.03;5099763;28;8858;-67
2022/03/27 10:35:39;;;;;;;;;15.00;10.00;;;;;13.89;57.11;101359.53;5099616;28;8883;-63
2022/03/27 10:38:07;;;;;;;;;9.50;9.25;;;;;13.88;56.95;101351.63;5099522;28;8912;-63
2022/03/27 10:40:37;;;;;;;;;19.75;18.00;;;;;13.86;57.09;101350.84;5098556;28;8900;-62
2022/03/27 10:43:05;;;;;;;;;22.50;21.75;;;;;13.85;56.99;101350.00;5098469;28;8969;-63
2022/03/27 10:45:35;;;;;;;;;16.00;13.50;;;;;13.89;56.78;101334.59;5098171;28;8919;-63
2022/03/27 10:48:03;;;;;;;;;13.50;12.00;;;;;13.95;56.74;101328.75;5098356;28;8835;-63
2022/03/27 10:50:31;;;;;;;;;15.50;14.00;;;;;14.00;56.85;101338.22;5113094;28;8830;-63
2022/03/27 10:53:00;;;;;;;;;12.50;11.50;;;;;14.07;56.53;101336.81;5114307;28;8833;-63
2022/03/27 10:55:27;;;;;;;;;14.25;12.50;;;;;14.11;56.67;101324.88;5117895;28;8865;-63
2022/03/27 10:57:55;;;;;;;;;18.25;15.25;;;;;14.18;56.39;101325.34;5117931;28;9570;-63
2022/03/27 11:00:23;;;;;;;;;17.50;15.25;;;;;14.26;56.61;101328.31;5118272;28;8932;-63
2022/03/27 11:02:52;;;;;;;;;21.50;16.75;;;;;14.34;56.33;101328.63;5117369;28;8844;-62
2022/03/27 11:05:21;;;;;;;;;18.00;16.00;;;;;14.44;56.09;101326.97;5117456;28;8833;-64
2022/03/27 11:07:48;;;;;;;;;23.50;21.25;;;;;14.52;56.19;101325.44;5117658;28;8934;-63
2022/03/27 11:10:16;;;;;;;;;31.75;27.50;;;;;14.58;55.92;101332.19;5117511;28;8846;-62
2022/03/27 11:12:44;;;;;;;;;16.50;15.50;;;;;14.65;55.64;101322.72;5117099;28;8849;-63
2022/03/27 11:15:12;;;;;;;;;17.00;15.75;;;;;14.76;56.02;101325.44;5117065;28;8822;-63
2022/03/27 11:17:40;;;;;;;;;9.25;7.00;;;;;14.84;55.74;101331.94;5117330;28;8920;-63
2022/03/27 11:20:07;;;;;;;;;17.00;15.50;;;;;14.93;55.32;101331.25;5101650;28;8909;-63
2022/03/27 11:22:35;;;;;;;;;13.00;12.00;;;;;15.02;55.25;101324.34;5097100;28;8835;-64
2022/03/27 11:25:03;;;;;;;;;15.00;9.50;;;;;15.18;55.11;101317.66;5096425;28;8844;-63
2022/03/27 11:27:31;;;;;;;;;14.75;12.50;;;;;15.37;54.82;101306.41;5095533;28;8808;-63
2022/03/27 11:29:59;;;;;;;;;13.25;12.50;;;;;15.83;54.22;101301.81;5096119;28;8853;-64
2022/03/27 11:32:27;;;;;;;;;17.00;14.00;;;;;16.30;53.07;101308.63;5096340;28;8824;-62
2022/03/27 11:34:54;;;;;;;;;16.50;15.00;;;;;16.75;51.94;101296.81;5097593;28;8851;-63
2022/03/27 11:37:26;;;;;;;;;17.00;15.25;;;;;17.18;51.00;101289.50;5096536;28;8841;-63